Thursday, August 16, 2018, 12:00 AM EDT
Back to Local

KCBE, Cumberland, Greater Cumberland Regional Airport

Location: Wiley Ford, MD, United States Lat: 39.615
Local Time: 12:00 AM EDT ( 4:00 GMT) Lon: -78.761
Time Zone: US/Eastern Elev: 774 ft

Show me the last for .
Show Coded

Time T Td Feel RH Dir Speed Gust Alt SLP Vis Weather Sky Remarks
2018-08-15 23:33 70 70 - 100 - Calm - 30.13 - 5 CLR None
2018-08-15 23:13 70 70 - 100 - Calm - 30.13 - 5 CLR None
2018-08-15 22:53 70 70 - 100 60° 3 - 30.12 - 4 CLR None
2018-08-15 22:33 72 70 76 94 - Calm - 30.12 - 4 CLR None
2018-08-15 22:13 73 70 77 88 - Calm - 30.12 - 7 CLR None
2018-08-15 21:53 73 70 77 88 - Calm - 30.12 - 7 CLR None
2018-08-15 21:33 72 70 76 94 - Calm - 30.12 - 7 CLR None
2018-08-15 21:13 73 70 77 88 - Calm - 30.11 - 7 CLR None
2018-08-15 20:53 75 70 79 83 - Calm - 30.11 - 10 CLR None
2018-08-15 20:33 75 70 79 83 - Calm - 30.10 - 10 CLR None
2018-08-15 20:13 77 68 80 73 - Calm - 30.10 - 10 CLR None
2018-08-15 19:53 79 64 81 61 - Calm - 30.09 - 10 CLR None
2018-08-15 19:33 81 63 82 54 270° 3 - 30.09 - 10 CLR None
2018-08-15 19:13 82 63 84 51 280° 5 - 30.08 - 10 CLR None
2018-08-15 18:53 82 63 84 51 280° 6 - 30.08 - 10 CLR None
2018-08-15 18:33 84 61 85 45 290° 3 - 30.08 - 10 CLR None
2018-08-15 18:13 86 61 87 42 - Calm - 30.08 - 10 CLR None
2018-08-15 17:53 86 63 88 45 300° 3 - 30.08 - 10 CLR None
2018-08-15 17:33 86 63 88 45 290° 3 - 30.08 - 10 CLR None
2018-08-15 17:13 86 63 88 45 - Calm - 30.08 - 10 CLR None
2018-08-15 16:53 86 63 88 45 300° 5 - 30.08 - 10 CLR None
2018-08-15 16:33 86 63 88 45 300° 5 - 30.08 - 10 SCT060 None
2018-08-15 16:13 86 63 88 45 340° 5 - 30.08 - 10 SCT060 None
2018-08-15 15:53 86 64 88 48 330° 7 - 30.08 - 10 SCT050 SCT060 None
2018-08-15 15:33 86 63 88 45 320° 6 - 30.08 - 10 SCT050 None
2018-08-15 15:13 86 63 88 45 270° 6 - 30.08 - 10 CLR None
2018-08-15 14:53 86 63 88 45 280° 7 - 30.09 - 10 CLR None
2018-08-15 14:33 86 63 88 45 270° 6 - 30.09 - 10 CLR None
2018-08-15 14:13 86 63 88 45 270° 6 - 30.09 - 10 CLR None
2018-08-15 13:53 86 63 88 45 320° 3 - 30.08 - 10 SCT055 None
2018-08-15 13:33 86 61 87 42 260° 7 - 30.09 - 10 CLR None
2018-08-15 13:13 86 61 87 42 290° 3 - 30.09 - 10 CLR None
2018-08-15 12:54 84 64 86 51 280° 7 - 30.09 - 10 SCT049 SCT055 None
2018-08-15 12:34 82 68 86 61 300° 3 - 30.10 - 10 SCT049 None
2018-08-15 12:14 82 70 87 65 220° 5 - 30.10 - 10 SCT047 None
2018-08-15 11:54 81 70 85 69 - Calm - 30.11 - 10 SCT046 None
2018-08-15 11:34 81 72 85 74 - Calm - 30.11 - 10 SCT044 None
2018-08-15 11:14 79 72 83 78 170° 3 - 30.11 - 10 SCT045 None
2018-08-15 10:53 75 72 79 88 - Calm - 30.11 - 10 CLR None
2018-08-15 10:33 73 73 78 100 - Calm - 30.11 - 7 CLR None
2018-08-15 10:13 70 70 - 100 - Calm - 30.11 - 7 SCT003 None
2018-08-15 09:53 70 70 - 100 - Calm - 30.11 - 5 SCT003 None
2018-08-15 09:33 68 68 - 100 - Calm - 30.10 - 3 OVC001 None
2018-08-15 09:13 68 68 - 100 - Calm - 30.11 - 2 OVC001 None
2018-08-15 08:53 66 66 - 100 - Calm - 30.11 - 1 OVC001 None
2018-08-15 08:33 66 66 - 100 - Calm - 30.11 - 0 OVC001 None
2018-08-15 08:13 66 66 - 100 - Calm - 30.10 - 0 OVC001 None
2018-08-15 07:54 64 64 - 100 - Calm - 30.10 - 0 OVC001 None
2018-08-15 07:34 64 64 - 100 - Calm - 30.09 - 0 OVC001 None
2018-08-15 07:14 64 64 - 100 - Calm - 30.09 - 0 OVC001 None
2018-08-15 06:53 64 64 - 100 - Calm - 30.09 - 0 OVC001 None
2018-08-15 06:33 64 64 - 100 - Calm - 30.08 - 0 OVC001 None
2018-08-15 06:13 66 66 - 100 - Calm - 30.07 - 0 OVC001 None
2018-08-15 05:53 66 66 - 100 - Calm - 30.07 - 0 OVC001 None
2018-08-15 05:33 66 66 - 100 - Calm - 30.07 - 0 OVC001 None
2018-08-15 05:13 66 66 - 100 - Calm - 30.06 - 0 OVC001 None
2018-08-15 04:53 66 66 - 100 - Calm - 30.06 - 0 OVC001 None
2018-08-15 04:33 66 66 - 100 - Calm - 30.06 - 0 OVC001 None
2018-08-15 04:13 66 66 - 100 - Calm - 30.06 - 0 OVC001 None
2018-08-15 03:53 66 66 - 100 - Calm - 30.05 - 0 OVC001 None
2018-08-15 03:33 66 66 - 100 - Calm - 30.05 - 0 OVC001 None
2018-08-15 03:13 66 66 - 100 - Calm - 30.05 - 0 OVC001 None
2018-08-15 02:53 66 66 - 100 - Calm - 30.05 - 0 OVC001 None
2018-08-15 02:33 66 66 - 100 - Calm - 30.05 - 0 OVC001 None
2018-08-15 02:13 68 68 - 100 - Calm - 30.06 - 0 OVC001 None
2018-08-15 01:53 68 68 - 100 320° 3 - 30.06 - 2 None
2018-08-15 01:33 68 68 - 100 - Calm - 30.07 - 1 SCT001 SCT050 None
2018-08-15 01:13 68 68 - 100 - Calm - 30.07 - 2 None
2018-08-15 00:53 68 68 - 100 - Calm - 30.07 - 3 None
2018-08-15 00:33 68 68 - 100 - Calm - 30.07 - 7 CLR None
2018-08-15 00:13 68 68 - 100 190° 3 - 30.07 - 10 CLR None

Support USWX by starting your Amazon purchase here.